Costa Pacifica — ICJA — position and weather

sailwx.info

Track history (hours):
 
Tides and Currents Weather Stations Pressure Air Temp Water Temp Dewpoint Dewpoint Depression Visibility Wind Speed Wind Dir Waves Ship Positions

Costa Pacifica

Last reported at 2017-Jun-25 22:44 UTC. Time now 2017-Jun-26 10:38 UTC.
Position N 63°01' E 006°10'.

Length 290 m; draft 8.3 m.

Type: Ship. MMSI: 247258100.

Date/timePositionNaut miles runAvg speedWind from/ knotsBaromVisibWave heightAir tempDewpointWater temp
2017-Jun-25 22:44N 63°01' E 006°10'519.6
2017-Jun-25 22:29N 62°57' E 006°05'1019.6
2017-Jun-25 22:00N 62°49' E 005°56'1019.5
2017-Jun-25 21:30N 62°40' E 005°47'816.9
2017-Jun-25 21:00N 62°32' E 005°43'816.8
2017-Jun-25 20:31N 62°27' E 005°58'713.4
2017-Jun-25 20:00N 62°23' E 006°09'918.3
2017-Jun-25 19:29N 62°25' E 006°29'917.7
2017-Jun-25 19:00N 62°27' E 006°47'815.7
2017-Jun-25 18:30N 62°20' E 006°56'816.9
2017-Jun-25 18:00N 62°13' E 007°02'713.3
2017-Jun-25 17:30N 62°06' E 006°59'611.4
2017-Jun-25 17:00N 62°06' E 007°11'0 0.5
2017-Jun-25 16:30N 62°06' E 007°11'0 0.1
2017-Jun-25 16:00N 62°06' E 007°12'0 0.3
2017-Jun-25 15:29N 62°06' E 007°12'0 0.0
2017-Jun-25 15:00N 62°06' E 007°12'0 0.0
2017-Jun-25 14:28N 62°06' E 007°12'0 0.0
2017-Jun-25 13:28N 62°06' E 007°12'0 0.0
2017-Jun-25 12:58N 62°06' E 007°12'0 0.0
2017-Jun-25 12:29N 62°06' E 007°12'0 0.0
2017-Jun-25 11:59N 62°06' E 007°12'0 0.0
2017-Jun-25 11:29N 62°06' E 007°12'0 0.0
2017-Jun-25 11:00N 62°06' E 007°12'0 0.0
2017-Jun-25 10:30N 62°06' E 007°12'0 0.0
2017-Jun-25 09:42N 62°06' E 007°12'0 0.0
2017-Jun-25 09:30N 62°06' E 007°12'0 0.2
2017-Jun-25 09:00N 62°06' E 007°12'2 3.4
2017-Jun-25 08:30N 62°07' E 007°09'511.0
2017-Jun-25 08:00N 62°07' E 006°57'2 1.1
2017-Jun-25 05:51N 62°05' E 006°53'2 5.1
2017-Jun-25 05:30N 62°07' E 006°55'5 9.8
2017-Jun-25 05:00N 62°11' E 007°01'611.9
2017-Jun-25 04:30N 62°16' E 007°01'612.8
2017-Jun-25 04:00N 62°22' E 006°55'713.0
2017-Jun-25 03:30N 62°27' E 006°46'816.7
2017-Jun-25 03:00N 62°25' E 006°29'917.6
2017-Jun-25 02:30N 62°23' E 006°11'713.9
2017-Jun-25 02:00N 62°27' E 005°59'714.7
2017-Jun-25 01:30N 62°30' E 005°44'816.5
2017-Jun-25 01:00N 62°29' E 005°26'918.6
2017-Jun-25 00:30N 62°23' E 005°10'918.2
2017-Jun-25 00:00N 62°17' E 004°56'918.2
2017-Jun-24 23:31N 62°11' E 004°42'917.7
2017-Jun-24 23:00N 62°05' E 004°28'41119.7
2017-Jun-24 02:10N 55°19' E 006°39'321.4
2017-Jun-24 02:00N 55°15' E 006°39'1121.2
2017-Jun-24 01:31N 55°05' E 006°42'1121.0
2017-Jun-24 01:00N 54°55' E 006°50'1021.0
2017-Jun-24 00:31N 54°46' E 006°59'4520.6
2017-Jun-23 22:20N 54°10' E 007°43'619.7
2017-Jun-23 22:00N 54°06' E 007°52'919.1
2017-Jun-23 21:30N 54°01' E 008°06'714.2
2017-Jun-23 21:00N 53°60' E 008°18'816.3
2017-Jun-23 20:30N 53°58' E 008°32'713.9
2017-Jun-23 20:00N 53°54' E 008°42'714.0
2017-Jun-23 19:31N 53°50' E 008°51'917.6
2017-Jun-23 19:00N 53°53' E 009°06'713.1
2017-Jun-23 18:30N 53°52' E 009°17'816.6
2017-Jun-23 18:00N 53°45' E 009°25'714.1
2017-Jun-23 17:30N 53°39' E 009°31'713.3
2017-Jun-23 17:00N 53°34' E 009°39'611.6
2017-Jun-23 16:30N 53°33' E 009°48'4 8.5
2017-Jun-23 16:00N 53°32' E 009°55'1 1.3
2017-Jun-23 15:30N 53°33' E 009°56'0 0.0
2017-Jun-23 15:00N 53°33' E 009°56'0 0.0
2017-Jun-23 14:00N 53°33' E 009°56'0 0.0
2017-Jun-23 13:30N 53°33' E 009°56'0 0.0
2017-Jun-23 12:59N 53°33' E 009°56'0 0.0
2017-Jun-23 12:29N 53°33' E 009°56'0 0.0
2017-Jun-23 11:59N 53°33' E 009°56'0 0.0
2017-Jun-23 11:29N 53°33' E 009°56'0 0.0
2017-Jun-23 10:58N 53°33' E 009°56'0 0.0
2017-Jun-23 10:28N 53°33' E 009°56'0 0.0
2017-Jun-23 09:58N 53°33' E 009°56'0 0.0
2017-Jun-23 09:28N 53°33' E 009°56'0 0.0
2017-Jun-23 08:58N 53°33' E 009°56'0 0.0
2017-Jun-23 08:30N 53°33' E 009°56'0 0.0
2017-Jun-23 08:00N 53°33' E 009°56'0 0.0
2017-Jun-23 07:30N 53°33' E 009°56'0 0.0
2017-Jun-23 07:00N 53°33' E 009°56'0 0.0
2017-Jun-23 06:30N 53°33' E 009°56'0 0.0
2017-Jun-23 05:59N 53°33' E 009°56'0 0.0
2017-Jun-23 05:30N 53°33' E 009°56'1 1.5
2017-Jun-23 05:00N 53°33' E 009°55'4 7.7
2017-Jun-23 04:30N 53°33' E 009°49'5 9.2
2017-Jun-23 04:01N 53°34' E 009°41'510.1
2017-Jun-23 03:30N 53°37' E 009°34'510.6
2017-Jun-23 03:00N 53°41' E 009°30'510.9
2017-Jun-23 02:30N 53°46' E 009°24'612.4
2017-Jun-23 02:00N 53°51' E 009°19'613.0
2017-Jun-23 01:30N 53°53' E 009°08'510.8
2017-Jun-23 01:00N 53°51' E 008°60'714.3
2017-Jun-23 00:30N 53°50' E 008°48'510.4
2017-Jun-23 00:00N 53°54' E 008°41'713.5
2017-Jun-22 23:30N 53°58' E 008°32'714.0
2017-Jun-22 23:00N 53°59' E 008°20'611.4
2017-Jun-22 22:30N 53°60' E 008°11'611.4
2017-Jun-22 22:00N 53°60' E 008°01'611.5
2017-Jun-22 21:29N 54°03' E 007°53'812.4
2017-Jun-22 20:53N 54°07' E 007°42'2612.6
2017-Jun-22 18:49N 54°29' E 007°17'413.4
2017-Jun-22 18:30N 54°32' E 007°13'713.3
2017-Jun-22 18:00N 54°38' E 007°08'713.2
2017-Jun-22 17:30N 54°45' E 007°04'713.2
2017-Jun-22 17:00N 54°50' E 006°59'612.9
2017-Jun-22 16:30N 54°56' E 006°53'612.8
2017-Jun-22 16:00N 55°02' E 006°48'612.6
2017-Jun-22 15:30N 55°07' E 006°44'612.4
2017-Jun-22 15:00N 55°13' E 006°40'612.1
2017-Jun-22 14:31N 55°19' E 006°36'20416.9
2017-Jun-22 02:26N 58°30' E 004°25'12617.5
2017-Jun-21 19:13N 60°36' E 004°21'418.4
2017-Jun-21 19:00N 60°40' E 004°26'817.0
2017-Jun-21 18:30N 60°45' E 004°40'714.3
2017-Jun-21 18:00N 60°40' E 004°51'918.1
2017-Jun-21 17:30N 60°31' E 004°58'816.6
2017-Jun-21 17:00N 60°24' E 005°07'5 9.9
2017-Jun-21 16:30N 60°24' E 005°17'1 2.2
2017-Jun-21 16:00N 60°24' E 005°19'0 0.0
2017-Jun-21 15:30N 60°24' E 005°19'0 0.0
2017-Jun-21 14:59N 60°24' E 005°19'0 0.0
2017-Jun-21 14:29N 60°24' E 005°19'0 0.0
2017-Jun-21 13:29N 60°24' E 005°19'0 0.0
2017-Jun-21 12:58N 60°24' E 005°19'0 0.0
2017-Jun-21 12:28N 60°24' E 005°19'0 0.0
2017-Jun-21 11:58N 60°24' E 005°19'0 0.0
2017-Jun-21 11:28N 60°24' E 005°19'0 0.0
2017-Jun-21 10:58N 60°24' E 005°19'0 0.0
2017-Jun-21 10:30N 60°24' E 005°19'0 0.0
2017-Jun-21 10:00N 60°24' E 005°19'0 0.0
2017-Jun-21 09:30N 60°24' E 005°19'0 0.0
2017-Jun-21 09:00N 60°24' E 005°19'0 0.0
2017-Jun-21 08:30N 60°24' E 005°19'0 0.0
2017-Jun-21 07:59N 60°24' E 005°19'0 0.0
2017-Jun-21 07:29N 60°24' E 005°19'0 0.0
2017-Jun-21 06:59N 60°24' E 005°19'0 0.0
2017-Jun-21 06:29N 60°24' E 005°19'0 0.0
2017-Jun-21 05:58N 60°24' E 005°19'0 0.0
2017-Jun-21 05:30N 60°24' E 005°19'2 4.5
2017-Jun-21 05:00N 60°24' E 005°14'5 9.6
2017-Jun-21 04:30N 60°25' E 005°05'917.0
2017-Jun-21 04:00N 60°32' E 004°56'918.1
2017-Jun-21 03:30N 60°41' E 004°50'816.9
2017-Jun-21 03:00N 60°46' E 004°36'919.0
2017-Jun-21 02:30N 60°53' E 004°24'7119.4
2017-Jun-20 22:50N 62°04' E 004°27'720.4
2017-Jun-20 22:30N 62°10' E 004°35'1019.9
2017-Jun-20 21:59N 62°16' E 004°52'1019.7
2017-Jun-20 21:30N 62°21' E 005°10'1019.5
2017-Jun-20 21:00N 62°26' E 005°28'918.2
2017-Jun-20 20:30N 62°29' E 005°46'919.3
2017-Jun-20 20:00N 62°24' E 006°04'1019.2
2017-Jun-20 19:30N 62°24' E 006°25'918.6
2017-Jun-20 19:00N 62°27' E 006°44'714.8
2017-Jun-20 18:30N 62°22' E 006°55'917.1
2017-Jun-20 18:00N 62°14' E 007°01'816.1
2017-Jun-20 17:30N 62°07' E 006°58'611.5
2017-Jun-20 17:01N 62°07' E 007°10'1 2.0
2017-Jun-20 16:30N 62°06' E 007°11'0 0.0
2017-Jun-20 16:00N 62°06' E 007°11'0 0.0
2017-Jun-20 15:30N 62°06' E 007°11'0 0.0
2017-Jun-20 14:58N 62°06' E 007°11'0 0.1
2017-Jun-20 14:30N 62°06' E 007°11'0 0.0
2017-Jun-20 13:30N 62°06' E 007°11'0 0.1
2017-Jun-20 13:00N 62°06' E 007°11'0 0.1
2017-Jun-20 12:30N 62°06' E 007°11'0 0.0
2017-Jun-20 11:51N 62°06' E 007°11'0 0.0
2017-Jun-20 11:30N 62°06' E 007°11'0 0.0
2017-Jun-20 10:58N 62°06' E 007°11'0 0.1
2017-Jun-20 10:30N 62°06' E 007°11'0 0.1
2017-Jun-20 09:58N 62°06' E 007°11'0 0.1
2017-Jun-20 09:30N 62°06' E 007°11'0 0.1
2017-Jun-20 09:00N 62°06' E 007°11'2 3.9
2017-Jun-20 08:30N 62°07' E 007°08'611.9
2017-Jun-20 08:00N 62°06' E 006°55'0 0.1
2017-Jun-20 05:51N 62°07' E 006°55'3 9.1
2017-Jun-20 05:30N 62°09' E 006°59'611.6
2017-Jun-20 05:01N 62°15' E 007°01'612.8
2017-Jun-20 04:30N 62°21' E 006°56'713.5
2017-Jun-20 04:00N 62°27' E 006°50'815.7
2017-Jun-20 03:30N 62°26' E 006°33'918.3
2017-Jun-20 03:00N 62°23' E 006°14'815.4
2017-Jun-20 02:30N 62°27' E 005°59'815.9
2017-Jun-20 02:00N 62°31' E 005°44'1019.5
2017-Jun-20 01:30N 62°40' E 005°44'1019.4
2017-Jun-20 01:00N 62°48' E 005°58'1019.7
2017-Jun-20 00:30N 62°55' E 006°12'1019.2
2017-Jun-20 00:00N 63°01' E 006°28'1019.3
2017-Jun-19 23:30N 63°06' E 006°46'1019.2
2017-Jun-19 23:00N 63°11' E 007°05'1019.4
2017-Jun-19 22:30N 63°14' E 007°25'1019.0
2017-Jun-19 22:00N 63°14' E 007°46'918.8
2017-Jun-19 21:30N 63°16' E 008°06'1019.3
2017-Jun-19 21:00N 63°22' E 008°23'1019.4
2017-Jun-19 20:30N 63°26' E 008°43'1019.4
2017-Jun-19 19:58N 63°30' E 009°05'1017.7
2017-Jun-19 19:23N 63°35' E 009°25'616.6
2017-Jun-19 19:00N 63°38' E 009°36'510.9
2017-Jun-19 18:30N 63°37' E 009°48'817.1
2017-Jun-19 18:01N 63°29' E 009°57'816.8
2017-Jun-19 17:31N 63°28' E 010°16'4 8.2
2017-Jun-19 17:01N 63°27' E 010°24'0 0.0
2017-Jun-19 16:29N 63°26' E 010°24'0 0.0
2017-Jun-19 15:59N 63°26' E 010°24'0 0.0
2017-Jun-19 15:29N 63°26' E 010°24'0 0.0
2017-Jun-19 14:59N 63°26' E 010°24'0 0.0
2017-Jun-19 13:58N 63°26' E 010°24'0 0.0
2017-Jun-19 13:28N 63°26' E 010°24'0 0.0
2017-Jun-19 12:58N 63°26' E 010°24'0 0.0
2017-Jun-19 12:31N 63°26' E 010°24'0 0.0
2017-Jun-19 12:00N 63°26' E 010°24'0 0.0
2017-Jun-19 11:30N 63°26' E 010°24'0 0.0
2017-Jun-19 11:00N 63°26' E 010°24'0 0.0
2017-Jun-19 10:31N 63°26' E 010°24'1 2.1
2017-Jun-19 10:00N 63°27' E 010°22'714.6
2017-Jun-19 09:30N 63°28' E 010°06'714.8
2017-Jun-19 09:01N 63°32' E 009°52'815.9
2017-Jun-19 08:30N 63°40' E 009°45'815.3
2017-Jun-19 08:00N 63°37' E 009°29'714.0
2017-Jun-19 07:30N 63°40' E 009°15'917.7
2017-Jun-19 07:00N 63°49' E 009°18'1019.8
2017-Jun-19 06:30N 63°59' E 009°25'1120.5
2017-Jun-19 06:00N 64°08' E 009°34'1020.2
2017-Jun-19 05:30N 64°18' E 009°40'12819.7
2017-Jun-18 23:01N 66°20' E 011°10'019.3
2017-Jun-18 22:59N 66°20' E 011°10'919.3
2017-Jun-18 22:30N 66°29' E 011°19'1019.6
2017-Jun-18 22:00N 66°38' E 011°28'1119.6
2017-Jun-18 21:26N 66°49' E 011°38'4220.3
2017-Jun-18 19:23N 67°24' E 012°33'821.3
2017-Jun-18 19:00N 67°31' E 012°44'1121.1
2017-Jun-18 18:30N 67°40' E 012°59'1020.7
2017-Jun-18 18:00N 67°49' E 013°13'1019.7
2017-Jun-18 17:30N 67°57' E 013°27'917.4
2017-Jun-18 17:00N 68°05' E 013°36'1 2.7
2017-Jun-18 16:30N 68°07' E 013°36'0 0.0
2017-Jun-18 15:56N 68°07' E 013°36'0 0.1
2017-Jun-18 15:29N 68°07' E 013°36'0 0.1
2017-Jun-18 14:59N 68°07' E 013°36'0 0.1
2017-Jun-18 14:29N 68°07' E 013°36'0 0.0
2017-Jun-18 13:59N 68°07' E 013°36'0 0.1
2017-Jun-18 13:28N 68°07' E 013°36'0 0.0
2017-Jun-18 12:58N 68°07' E 013°36'0 0.1
2017-Jun-18 12:28N 68°07' E 013°36'0 0.1
2017-Jun-18 11:58N 68°07' E 013°36'0 0.1
2017-Jun-18 11:30N 68°07' E 013°36'0 0.0
2017-Jun-18 11:00N 68°07' E 013°36'0 0.1
2017-Jun-18 10:30N 68°07' E 013°36'0 0.1
2017-Jun-18 10:00N 68°07' E 013°36'0 0.0
2017-Jun-18 09:30N 68°07' E 013°36'0 0.1
2017-Jun-18 08:59N 68°07' E 013°36'0 0.1
2017-Jun-18 08:29N 68°07' E 013°36'0 0.1
2017-Jun-18 07:59N 68°07' E 013°36'0 0.0
2017-Jun-18 07:29N 68°07' E 013°36'0 0.1
2017-Jun-18 06:59N 68°07' E 013°36'0 0.2
2017-Jun-18 06:28N 68°07' E 013°36'0 0.1
2017-Jun-18 05:58N 68°07' E 013°36'0 0.3
2017-Jun-18 05:30N 68°07' E 013°36'5 9.5
2017-Jun-18 05:00N 68°02' E 013°35'714.1
2017-Jun-18 04:30N 67°57' E 013°22'918.0
2017-Jun-18 04:00N 67°51' E 013°03'816.5
2017-Jun-18 03:30N 67°49' E 012°42'815.7
2017-Jun-18 03:00N 67°57' E 012°37'917.7
2017-Jun-18 02:30N 68°05' E 012°46'1020.2
2017-Jun-18 02:00N 68°14' E 012°57'1020.2
2017-Jun-18 01:30N 68°23' E 013°07'1020.4
2017-Jun-18 01:00N 68°33' E 013°18'1020.6
2017-Jun-18 00:30N 68°42' E 013°30'1020.4
2017-Jun-18 00:00N 68°51' E 013°43'1020.5
2017-Jun-17 23:30N 68°59' E 014°02'1020.4
2017-Jun-17 23:00N 69°07' E 014°21'917.9
2017-Jun-17 22:30N 69°14' E 014°37'917.3
2017-Jun-17 21:59N 69°20' E 014°53'917.3
2017-Jun-17 21:30N 69°25' E 015°13'917.6
2017-Jun-17 21:00N 69°30' E 015°34'917.8
2017-Jun-17 20:30N 69°35' E 015°56'918.4
2017-Jun-17 20:00N 69°39' E 016°19'918.6
2017-Jun-17 19:30N 69°42' E 016°44'918.6
2017-Jun-17 19:00N 69°44' E 017°10'919.0
2017-Jun-17 18:31N 69°45' E 017°37'918.0
2017-Jun-17 18:00N 69°45' E 018°03'713.9
2017-Jun-17 17:30N 69°48' E 018°21'612.6
2017-Jun-17 17:00N 69°50' E 018°39'4 9.0
2017-Jun-17 16:30N 69°55' E 018°41'815.7
2017-Jun-17 16:00N 69°50' E 018°60'612.1
2017-Jun-17 15:30N 69°44' E 019°03'3 6.2
2017-Jun-17 15:00N 69°41' E 018°60'0 0.0
2017-Jun-17 14:00N 69°41' E 018°60'0 0.0
2017-Jun-17 13:30N 69°41' E 018°60'0 0.0
2017-Jun-17 12:59N 69°41' E 018°60'0 0.0
2017-Jun-17 12:29N 69°41' E 018°60'0 0.0
2017-Jun-17 11:59N 69°41' E 018°60'0 0.0
2017-Jun-17 11:29N 69°41' E 018°60'0 0.0
2017-Jun-17 10:58N 69°41' E 018°60'0 0.0
2017-Jun-17 10:28N 69°41' E 018°60'0 0.0
2017-Jun-17 09:57N 69°41' E 018°60'0 0.0
2017-Jun-17 09:28N 69°41' E 018°60'0 0.0
2017-Jun-17 08:58N 69°41' E 018°60'0 0.0
2017-Jun-17 08:30N 69°41' E 018°60'0 0.0
2017-Jun-17 08:00N 69°41' E 018°60'0 0.0
2017-Jun-17 07:30N 69°41' E 018°60'0 0.0
2017-Jun-17 07:00N 69°41' E 018°60'0 0.0
2017-Jun-17 06:29N 69°41' E 018°60'0 0.0
2017-Jun-17 05:59N 69°41' E 018°60'0 0.2
2017-Jun-17 05:30N 69°41' E 018°60'1 2.4
2017-Jun-17 05:00N 69°41' E 019°02'4 8.8
2017-Jun-17 04:30N 69°46' E 019°05'612.0
2017-Jun-17 04:00N 69°48' E 019°21'612.2
2017-Jun-17 03:30N 69°50' E 019°38'611.5
2017-Jun-17 03:00N 69°53' E 019°51'612.2
2017-Jun-17 02:30N 69°58' E 020°00'918.4
2017-Jun-17 02:00N 70°06' E 020°14'918.8
2017-Jun-17 01:30N 70°14' E 020°28'918.5
2017-Jun-17 01:00N 70°19' E 020°51'918.7
2017-Jun-17 00:30N 70°24' E 021°15'918.7
2017-Jun-17 00:00N 70°26' E 021°43'1019.1
2017-Jun-16 23:30N 70°27' E 022°11'1018.8
2017-Jun-16 22:59N 70°28' E 022°39'917.9
2017-Jun-16 22:30N 70°33' E 023°02'918.2
2017-Jun-16 22:00N 70°39' E 023°21'918.4
2017-Jun-16 21:30N 70°46' E 023°40'918.3
2017-Jun-16 21:00N 70°52' E 024°01'918.2
2017-Jun-16 20:30N 70°58' E 024°21'714.3
2017-Jun-16 20:00N 71°01' E 024°41'917.4
2017-Jun-16 19:30N 70°59' E 025°07'815.1
2017-Jun-16 18:59N 70°57' E 025°29'612.9
2017-Jun-16 18:30N 70°56' E 025°48'4 8.7
2017-Jun-16 18:00N 70°59' E 025°58'0 0.0
2017-Jun-16 17:30N 70°59' E 025°58'0 0.0
2017-Jun-16 16:59N 70°59' E 025°58'0 0.0
2017-Jun-16 16:29N 70°59' E 025°58'0 0.0
2017-Jun-16 15:59N 70°59' E 025°58'0 0.0
2017-Jun-16 15:29N 70°59' E 025°58'0 0.0
2017-Jun-16 14:59N 70°59' E 025°58'0 0.0
2017-Jun-16 13:58N 70°59' E 025°58'0 0.0
2017-Jun-16 13:28N 70°59' E 025°58'0 0.0
2017-Jun-16 12:58N 70°59' E 025°58'0 0.0
2017-Jun-16 12:28N 70°59' E 025°58'0 0.0
2017-Jun-16 12:00N 70°59' E 025°58'0 0.0
2017-Jun-16 11:30N 70°59' E 025°58'0 0.0
2017-Jun-16 11:00N 70°59' E 025°58'0 0.0
2017-Jun-16 10:30N 70°59' E 025°58'0 0.0
2017-Jun-16 10:00N 70°59' E 025°58'0 0.0
2017-Jun-16 09:29N 70°59' E 025°58'0 0.0
2017-Jun-16 09:00N 70°59' E 025°58'1 3.0
2017-Jun-16 08:30N 70°58' E 025°59'510.4
2017-Jun-16 08:00N 70°59' E 026°14'612.2
2017-Jun-16 07:30N 71°05' E 026°19'714.1
2017-Jun-16 07:00N 71°11' E 026°06'714.3
2017-Jun-16 06:30N 71°14' E 025°46'917.6
2017-Jun-16 06:00N 71°14' E 025°19'1019.9
2017-Jun-16 05:30N 71°13' E 024°48'1019.7
2017-Jun-16 05:00N 71°12' E 024°18'1020.1
2017-Jun-16 04:30N 71°11' E 023°47'1020.3
2017-Jun-16 04:00N 71°08' E 023°17'1020.1
2017-Jun-16 03:30N 71°05' E 022°47'1020.3
2017-Jun-16 03:00N 71°01' E 022°18'1020.0
2017-Jun-16 02:29N 70°57' E 021°50'3719.3
2017-Jun-16 00:34N 70°41' E 020°07'119.0
2017-Jun-16 00:30N 70°41' E 020°03'918.7
2017-Jun-16 00:00N 70°36' E 019°39'918.9
2017-Jun-15 23:30N 70°30' E 019°16'919.1
2017-Jun-15 23:00N 70°24' E 018°54'  
Track history (hours):
 
Tides and Currents Weather Stations Pressure Air Temp Water Temp Dewpoint Dewpoint Depression Visibility Wind Speed Wind Dir Waves Ship Positions

Costa Pacifica

Last reported at 2017-Jun-25 22:44 UTC. Time now 2017-Jun-26 10:38 UTC.
Position N 63°01' E 006°10'.

Length 290 m; draft 8.3 m.

Type: Ship. MMSI: 247258100.

Date/timePositionNaut miles runAvg speedWind from/ knotsBaromVisibWave heightAir tempDewpointWater temp
2017-Jun-25 22:44N 63°01' E 006°10'519.6
2017-Jun-25 22:29N 62°57' E 006°05'1019.6
2017-Jun-25 22:00N 62°49' E 005°56'1019.5
2017-Jun-25 21:30N 62°40' E 005°47'816.9
2017-Jun-25 21:00N 62°32' E 005°43'816.8
2017-Jun-25 20:31N 62°27' E 005°58'713.4
2017-Jun-25 20:00N 62°23' E 006°09'918.3
2017-Jun-25 19:29N 62°25' E 006°29'917.7
2017-Jun-25 19:00N 62°27' E 006°47'815.7
2017-Jun-25 18:30N 62°20' E 006°56'816.9
2017-Jun-25 18:00N 62°13' E 007°02'713.3
2017-Jun-25 17:30N 62°06' E 006°59'611.4
2017-Jun-25 17:00N 62°06' E 007°11'0 0.5
2017-Jun-25 16:30N 62°06' E 007°11'0 0.1
2017-Jun-25 16:00N 62°06' E 007°12'0 0.3
2017-Jun-25 15:29N 62°06' E 007°12'0 0.0
2017-Jun-25 15:00N 62°06' E 007°12'0 0.0
2017-Jun-25 14:28N 62°06' E 007°12'0 0.0
2017-Jun-25 13:28N 62°06' E 007°12'0 0.0
2017-Jun-25 12:58N 62°06' E 007°12'0 0.0
2017-Jun-25 12:29N 62°06' E 007°12'0 0.0
2017-Jun-25 11:59N 62°06' E 007°12'0 0.0
2017-Jun-25 11:29N 62°06' E 007°12'0 0.0
2017-Jun-25 11:00N 62°06' E 007°12'0 0.0
2017-Jun-25 10:30N 62°06' E 007°12'0 0.0
2017-Jun-25 09:42N 62°06' E 007°12'0 0.0
2017-Jun-25 09:30N 62°06' E 007°12'0 0.2
2017-Jun-25 09:00N 62°06' E 007°12'2 3.4
2017-Jun-25 08:30N 62°07' E 007°09'511.0
2017-Jun-25 08:00N 62°07' E 006°57'2 1.1
2017-Jun-25 05:51N 62°05' E 006°53'2 5.1
2017-Jun-25 05:30N 62°07' E 006°55'5 9.8
2017-Jun-25 05:00N 62°11' E 007°01'611.9
2017-Jun-25 04:30N 62°16' E 007°01'612.8
2017-Jun-25 04:00N 62°22' E 006°55'713.0
2017-Jun-25 03:30N 62°27' E 006°46'816.7
2017-Jun-25 03:00N 62°25' E 006°29'917.6
2017-Jun-25 02:30N 62°23' E 006°11'713.9
2017-Jun-25 02:00N 62°27' E 005°59'714.7
2017-Jun-25 01:30N 62°30' E 005°44'816.5
2017-Jun-25 01:00N 62°29' E 005°26'918.6
2017-Jun-25 00:30N 62°23' E 005°10'918.2
2017-Jun-25 00:00N 62°17' E 004°56'918.2
2017-Jun-24 23:31N 62°11' E 004°42'917.7
2017-Jun-24 23:00N 62°05' E 004°28'41119.7
2017-Jun-24 02:10N 55°19' E 006°39'321.4
2017-Jun-24 02:00N 55°15' E 006°39'1121.2
2017-Jun-24 01:31N 55°05' E 006°42'1121.0
2017-Jun-24 01:00N 54°55' E 006°50'1021.0
2017-Jun-24 00:31N 54°46' E 006°59'4520.6
2017-Jun-23 22:20N 54°10' E 007°43'619.7
2017-Jun-23 22:00N 54°06' E 007°52'919.1
2017-Jun-23 21:30N 54°01' E 008°06'714.2
2017-Jun-23 21:00N 53°60' E 008°18'816.3
2017-Jun-23 20:30N 53°58' E 008°32'713.9
2017-Jun-23 20:00N 53°54' E 008°42'714.0
2017-Jun-23 19:31N 53°50' E 008°51'917.6
2017-Jun-23 19:00N 53°53' E 009°06'713.1
2017-Jun-23 18:30N 53°52' E 009°17'816.6
2017-Jun-23 18:00N 53°45' E 009°25'714.1
2017-Jun-23 17:30N 53°39' E 009°31'713.3
2017-Jun-23 17:00N 53°34' E 009°39'611.6
2017-Jun-23 16:30N 53°33' E 009°48'4 8.5
2017-Jun-23 16:00N 53°32' E 009°55'1 1.3
2017-Jun-23 15:30N 53°33' E 009°56'0 0.0
2017-Jun-23 15:00N 53°33' E 009°56'0 0.0
2017-Jun-23 14:00N 53°33' E 009°56'0 0.0
2017-Jun-23 13:30N 53°33' E 009°56'0 0.0
2017-Jun-23 12:59N 53°33' E 009°56'0 0.0
2017-Jun-23 12:29N 53°33' E 009°56'0 0.0
2017-Jun-23 11:59N 53°33' E 009°56'0 0.0
2017-Jun-23 11:29N 53°33' E 009°56'0 0.0
2017-Jun-23 10:58N 53°33' E 009°56'0 0.0
2017-Jun-23 10:28N 53°33' E 009°56'0 0.0
2017-Jun-23 09:58N 53°33' E 009°56'0 0.0
2017-Jun-23 09:28N 53°33' E 009°56'0 0.0
2017-Jun-23 08:58N 53°33' E 009°56'0 0.0
2017-Jun-23 08:30N 53°33' E 009°56'0 0.0
2017-Jun-23 08:00N 53°33' E 009°56'0 0.0
2017-Jun-23 07:30N 53°33' E 009°56'0 0.0
2017-Jun-23 07:00N 53°33' E 009°56'0 0.0
2017-Jun-23 06:30N 53°33' E 009°56'0 0.0
2017-Jun-23 05:59N 53°33' E 009°56'0 0.0
2017-Jun-23 05:30N 53°33' E 009°56'1 1.5
2017-Jun-23 05:00N 53°33' E 009°55'4 7.7
2017-Jun-23 04:30N 53°33' E 009°49'5 9.2
2017-Jun-23 04:01N 53°34' E 009°41'510.1
2017-Jun-23 03:30N 53°37' E 009°34'510.6
2017-Jun-23 03:00N 53°41' E 009°30'510.9
2017-Jun-23 02:30N 53°46' E 009°24'612.4
2017-Jun-23 02:00N 53°51' E 009°19'613.0
2017-Jun-23 01:30N 53°53' E 009°08'510.8
2017-Jun-23 01:00N 53°51' E 008°60'714.3
2017-Jun-23 00:30N 53°50' E 008°48'510.4
2017-Jun-23 00:00N 53°54' E 008°41'713.5
2017-Jun-22 23:30N 53°58' E 008°32'714.0
2017-Jun-22 23:00N 53°59' E 008°20'611.4
2017-Jun-22 22:30N 53°60' E 008°11'611.4
2017-Jun-22 22:00N 53°60' E 008°01'611.5
2017-Jun-22 21:29N 54°03' E 007°53'812.4
2017-Jun-22 20:53N 54°07' E 007°42'2612.6
2017-Jun-22 18:49N 54°29' E 007°17'413.4
2017-Jun-22 18:30N 54°32' E 007°13'713.3
2017-Jun-22 18:00N 54°38' E 007°08'713.2
2017-Jun-22 17:30N 54°45' E 007°04'713.2
2017-Jun-22 17:00N 54°50' E 006°59'612.9
2017-Jun-22 16:30N 54°56' E 006°53'612.8
2017-Jun-22 16:00N 55°02' E 006°48'612.6
2017-Jun-22 15:30N 55°07' E 006°44'612.4
2017-Jun-22 15:00N 55°13' E 006°40'612.1
2017-Jun-22 14:31N 55°19' E 006°36'20416.9
2017-Jun-22 02:26N 58°30' E 004°25'12617.5
2017-Jun-21 19:13N 60°36' E 004°21'418.4
2017-Jun-21 19:00N 60°40' E 004°26'817.0
2017-Jun-21 18:30N 60°45' E 004°40'714.3
2017-Jun-21 18:00N 60°40' E 004°51'918.1
2017-Jun-21 17:30N 60°31' E 004°58'816.6
2017-Jun-21 17:00N 60°24' E 005°07'5 9.9
2017-Jun-21 16:30N 60°24' E 005°17'1 2.2
2017-Jun-21 16:00N 60°24' E 005°19'0 0.0
2017-Jun-21 15:30N 60°24' E 005°19'0 0.0
2017-Jun-21 14:59N 60°24' E 005°19'0 0.0
2017-Jun-21 14:29N 60°24' E 005°19'0 0.0
2017-Jun-21 13:29N 60°24' E 005°19'0 0.0
2017-Jun-21 12:58N 60°24' E 005°19'0 0.0
2017-Jun-21 12:28N 60°24' E 005°19'0 0.0
2017-Jun-21 11:58N 60°24' E 005°19'0 0.0
2017-Jun-21 11:28N 60°24' E 005°19'0 0.0
2017-Jun-21 10:58N 60°24' E 005°19'0 0.0
2017-Jun-21 10:30N 60°24' E 005°19'0 0.0
2017-Jun-21 10:00N 60°24' E 005°19'0 0.0
2017-Jun-21 09:30N 60°24' E 005°19'0 0.0
2017-Jun-21 09:00N 60°24' E 005°19'0 0.0
2017-Jun-21 08:30N 60°24' E 005°19'0 0.0
2017-Jun-21 07:59N 60°24' E 005°19'0 0.0
2017-Jun-21 07:29N 60°24' E 005°19'0 0.0
2017-Jun-21 06:59N 60°24' E 005°19'0 0.0
2017-Jun-21 06:29N 60°24' E 005°19'0 0.0
2017-Jun-21 05:58N 60°24' E 005°19'0 0.0
2017-Jun-21 05:30N 60°24' E 005°19'2 4.5
2017-Jun-21 05:00N 60°24' E 005°14'5 9.6
2017-Jun-21 04:30N 60°25' E 005°05'917.0
2017-Jun-21 04:00N 60°32' E 004°56'918.1
2017-Jun-21 03:30N 60°41' E 004°50'816.9
2017-Jun-21 03:00N 60°46' E 004°36'919.0
2017-Jun-21 02:30N 60°53' E 004°24'7119.4
2017-Jun-20 22:50N 62°04' E 004°27'720.4
2017-Jun-20 22:30N 62°10' E 004°35'1019.9
2017-Jun-20 21:59N 62°16' E 004°52'1019.7
2017-Jun-20 21:30N 62°21' E 005°10'1019.5
2017-Jun-20 21:00N 62°26' E 005°28'918.2
2017-Jun-20 20:30N 62°29' E 005°46'919.3
2017-Jun-20 20:00N 62°24' E 006°04'1019.2
2017-Jun-20 19:30N 62°24' E 006°25'918.6
2017-Jun-20 19:00N 62°27' E 006°44'714.8
2017-Jun-20 18:30N 62°22' E 006°55'917.1
2017-Jun-20 18:00N 62°14' E 007°01'816.1
2017-Jun-20 17:30N 62°07' E 006°58'611.5
2017-Jun-20 17:01N 62°07' E 007°10'1 2.0
2017-Jun-20 16:30N 62°06' E 007°11'0 0.0
2017-Jun-20 16:00N 62°06' E 007°11'0 0.0
2017-Jun-20 15:30N 62°06' E 007°11'0 0.0
2017-Jun-20 14:58N 62°06' E 007°11'0 0.1
2017-Jun-20 14:30N 62°06' E 007°11'0 0.0
2017-Jun-20 13:30N 62°06' E 007°11'0 0.1
2017-Jun-20 13:00N 62°06' E 007°11'0 0.1
2017-Jun-20 12:30N 62°06' E 007°11'0 0.0
2017-Jun-20 11:51N 62°06' E 007°11'0 0.0
2017-Jun-20 11:30N 62°06' E 007°11'0 0.0
2017-Jun-20 10:58N 62°06' E 007°11'0 0.1
2017-Jun-20 10:30N 62°06' E 007°11'0 0.1
2017-Jun-20 09:58N 62°06' E 007°11'0 0.1
2017-Jun-20 09:30N 62°06' E 007°11'0 0.1
2017-Jun-20 09:00N 62°06' E 007°11'2 3.9
2017-Jun-20 08:30N 62°07' E 007°08'611.9
2017-Jun-20 08:00N 62°06' E 006°55'0 0.1
2017-Jun-20 05:51N 62°07' E 006°55'3 9.1
2017-Jun-20 05:30N 62°09' E 006°59'611.6
2017-Jun-20 05:01N 62°15' E 007°01'612.8
2017-Jun-20 04:30N 62°21' E 006°56'713.5
2017-Jun-20 04:00N 62°27' E 006°50'815.7
2017-Jun-20 03:30N 62°26' E 006°33'918.3
2017-Jun-20 03:00N 62°23' E 006°14'815.4
2017-Jun-20 02:30N 62°27' E 005°59'815.9
2017-Jun-20 02:00N 62°31' E 005°44'1019.5
2017-Jun-20 01:30N 62°40' E 005°44'1019.4
2017-Jun-20 01:00N 62°48' E 005°58'1019.7
2017-Jun-20 00:30N 62°55' E 006°12'1019.2
2017-Jun-20 00:00N 63°01' E 006°28'1019.3
2017-Jun-19 23:30N 63°06' E 006°46'1019.2
2017-Jun-19 23:00N 63°11' E 007°05'1019.4
2017-Jun-19 22:30N 63°14' E 007°25'1019.0
2017-Jun-19 22:00N 63°14' E 007°46'918.8
2017-Jun-19 21:30N 63°16' E 008°06'1019.3
2017-Jun-19 21:00N 63°22' E 008°23'1019.4
2017-Jun-19 20:30N 63°26' E 008°43'1019.4
2017-Jun-19 19:58N 63°30' E 009°05'1017.7
2017-Jun-19 19:23N 63°35' E 009°25'616.6
2017-Jun-19 19:00N 63°38' E 009°36'510.9
2017-Jun-19 18:30N 63°37' E 009°48'817.1
2017-Jun-19 18:01N 63°29' E 009°57'816.8
2017-Jun-19 17:31N 63°28' E 010°16'4 8.2
2017-Jun-19 17:01N 63°27' E 010°24'0 0.0
2017-Jun-19 16:29N 63°26' E 010°24'0 0.0
2017-Jun-19 15:59N 63°26' E 010°24'0 0.0
2017-Jun-19 15:29N 63°26' E 010°24'0 0.0
2017-Jun-19 14:59N 63°26' E 010°24'0 0.0
2017-Jun-19 13:58N 63°26' E 010°24'0 0.0
2017-Jun-19 13:28N 63°26' E 010°24'0 0.0
2017-Jun-19 12:58N 63°26' E 010°24'0 0.0
2017-Jun-19 12:31N 63°26' E 010°24'0 0.0
2017-Jun-19 12:00N 63°26' E 010°24'0 0.0
2017-Jun-19 11:30N 63°26' E 010°24'0 0.0
2017-Jun-19 11:00N 63°26' E 010°24'0 0.0
2017-Jun-19 10:31N 63°26' E 010°24'1 2.1
2017-Jun-19 10:00N 63°27' E 010°22'714.6
2017-Jun-19 09:30N 63°28' E 010°06'714.8
2017-Jun-19 09:01N 63°32' E 009°52'815.9
2017-Jun-19 08:30N 63°40' E 009°45'815.3
2017-Jun-19 08:00N 63°37' E 009°29'714.0
2017-Jun-19 07:30N 63°40' E 009°15'917.7
2017-Jun-19 07:00N 63°49' E 009°18'1019.8
2017-Jun-19 06:30N 63°59' E 009°25'1120.5
2017-Jun-19 06:00N 64°08' E 009°34'1020.2
2017-Jun-19 05:30N 64°18' E 009°40'12819.7
2017-Jun-18 23:01N 66°20' E 011°10'019.3
2017-Jun-18 22:59N 66°20' E 011°10'919.3
2017-Jun-18 22:30N 66°29' E 011°19'1019.6
2017-Jun-18 22:00N 66°38' E 011°28'1119.6
2017-Jun-18 21:26N 66°49' E 011°38'4220.3
2017-Jun-18 19:23N 67°24' E 012°33'821.3
2017-Jun-18 19:00N 67°31' E 012°44'1121.1
2017-Jun-18 18:30N 67°40' E 012°59'1020.7
2017-Jun-18 18:00N 67°49' E 013°13'1019.7
2017-Jun-18 17:30N 67°57' E 013°27'917.4
2017-Jun-18 17:00N 68°05' E 013°36'1 2.7
2017-Jun-18 16:30N 68°07' E 013°36'0 0.0
2017-Jun-18 15:56N 68°07' E 013°36'0 0.1
2017-Jun-18 15:29N 68°07' E 013°36'0 0.1
2017-Jun-18 14:59N 68°07' E 013°36'0 0.1
2017-Jun-18 14:29N 68°07' E 013°36'0 0.0
2017-Jun-18 13:59N 68°07' E 013°36'0 0.1
2017-Jun-18 13:28N 68°07' E 013°36'0 0.0
2017-Jun-18 12:58N 68°07' E 013°36'0 0.1
2017-Jun-18 12:28N 68°07' E 013°36'0 0.1
2017-Jun-18 11:58N 68°07' E 013°36'0 0.1
2017-Jun-18 11:30N 68°07' E 013°36'0 0.0
2017-Jun-18 11:00N 68°07' E 013°36'0 0.1
2017-Jun-18 10:30N 68°07' E 013°36'0 0.1
2017-Jun-18 10:00N 68°07' E 013°36'0 0.0
2017-Jun-18 09:30N 68°07' E 013°36'0 0.1
2017-Jun-18 08:59N 68°07' E 013°36'0 0.1
2017-Jun-18 08:29N 68°07' E 013°36'0 0.1
2017-Jun-18 07:59N 68°07' E 013°36'0 0.0
2017-Jun-18 07:29N 68°07' E 013°36'0 0.1
2017-Jun-18 06:59N 68°07' E 013°36'0 0.2
2017-Jun-18 06:28N 68°07' E 013°36'0 0.1
2017-Jun-18 05:58N 68°07' E 013°36'0 0.3
2017-Jun-18 05:30N 68°07' E 013°36'5 9.5
2017-Jun-18 05:00N 68°02' E 013°35'714.1
2017-Jun-18 04:30N 67°57' E 013°22'918.0
2017-Jun-18 04:00N 67°51' E 013°03'816.5
2017-Jun-18 03:30N 67°49' E 012°42'815.7
2017-Jun-18 03:00N 67°57' E 012°37'917.7
2017-Jun-18 02:30N 68°05' E 012°46'1020.2
2017-Jun-18 02:00N 68°14' E 012°57'1020.2
2017-Jun-18 01:30N 68°23' E 013°07'1020.4
2017-Jun-18 01:00N 68°33' E 013°18'1020.6
2017-Jun-18 00:30N 68°42' E 013°30'1020.4
2017-Jun-18 00:00N 68°51' E 013°43'1020.5
2017-Jun-17 23:30N 68°59' E 014°02'1020.4
2017-Jun-17 23:00N 69°07' E 014°21'917.9
2017-Jun-17 22:30N 69°14' E 014°37'917.3
2017-Jun-17 21:59N 69°20' E 014°53'917.3
2017-Jun-17 21:30N 69°25' E 015°13'917.6
2017-Jun-17 21:00N 69°30' E 015°34'917.8
2017-Jun-17 20:30N 69°35' E 015°56'918.4
2017-Jun-17 20:00N 69°39' E 016°19'918.6
2017-Jun-17 19:30N 69°42' E 016°44'918.6
2017-Jun-17 19:00N 69°44' E 017°10'919.0
2017-Jun-17 18:31N 69°45' E 017°37'918.0
2017-Jun-17 18:00N 69°45' E 018°03'713.9
2017-Jun-17 17:30N 69°48' E 018°21'612.6
2017-Jun-17 17:00N 69°50' E 018°39'4 9.0
2017-Jun-17 16:30N 69°55' E 018°41'815.7
2017-Jun-17 16:00N 69°50' E 018°60'612.1
2017-Jun-17 15:30N 69°44' E 019°03'3 6.2
2017-Jun-17 15:00N 69°41' E 018°60'0 0.0
2017-Jun-17 14:00N 69°41' E 018°60'0 0.0
2017-Jun-17 13:30N 69°41' E 018°60'0 0.0
2017-Jun-17 12:59N 69°41' E 018°60'0 0.0
2017-Jun-17 12:29N 69°41' E 018°60'0 0.0
2017-Jun-17 11:59N 69°41' E 018°60'0 0.0
2017-Jun-17 11:29N 69°41' E 018°60'0 0.0
2017-Jun-17 10:58N 69°41' E 018°60'0 0.0
2017-Jun-17 10:28N 69°41' E 018°60'0 0.0
2017-Jun-17 09:57N 69°41' E 018°60'0 0.0
2017-Jun-17 09:28N 69°41' E 018°60'0 0.0
2017-Jun-17 08:58N 69°41' E 018°60'0 0.0
2017-Jun-17 08:30N 69°41' E 018°60'0 0.0
2017-Jun-17 08:00N 69°41' E 018°60'0 0.0
2017-Jun-17 07:30N 69°41' E 018°60'0 0.0
2017-Jun-17 07:00N 69°41' E 018°60'0 0.0
2017-Jun-17 06:29N 69°41' E 018°60'0 0.0
2017-Jun-17 05:59N 69°41' E 018°60'0 0.2
2017-Jun-17 05:30N 69°41' E 018°60'1 2.4
2017-Jun-17 05:00N 69°41' E 019°02'4 8.8
2017-Jun-17 04:30N 69°46' E 019°05'612.0
2017-Jun-17 04:00N 69°48' E 019°21'612.2
2017-Jun-17 03:30N 69°50' E 019°38'611.5
2017-Jun-17 03:00N 69°53' E 019°51'612.2
2017-Jun-17 02:30N 69°58' E 020°00'918.4
2017-Jun-17 02:00N 70°06' E 020°14'918.8
2017-Jun-17 01:30N 70°14' E 020°28'918.5
2017-Jun-17 01:00N 70°19' E 020°51'918.7
2017-Jun-17 00:30N 70°24' E 021°15'918.7
2017-Jun-17 00:00N 70°26' E 021°43'1019.1
2017-Jun-16 23:30N 70°27' E 022°11'1018.8
2017-Jun-16 22:59N 70°28' E 022°39'917.9
2017-Jun-16 22:30N 70°33' E 023°02'918.2
2017-Jun-16 22:00N 70°39' E 023°21'918.4
2017-Jun-16 21:30N 70°46' E 023°40'918.3
2017-Jun-16 21:00N 70°52' E 024°01'918.2
2017-Jun-16 20:30N 70°58' E 024°21'714.3
2017-Jun-16 20:00N 71°01' E 024°41'917.4
2017-Jun-16 19:30N 70°59' E 025°07'815.1
2017-Jun-16 18:59N 70°57' E 025°29'612.9
2017-Jun-16 18:30N 70°56' E 025°48'4 8.7
2017-Jun-16 18:00N 70°59' E 025°58'0 0.0
2017-Jun-16 17:30N 70°59' E 025°58'0 0.0
2017-Jun-16 16:59N 70°59' E 025°58'0 0.0
2017-Jun-16 16:29N 70°59' E 025°58'0 0.0
2017-Jun-16 15:59N 70°59' E 025°58'0 0.0
2017-Jun-16 15:29N 70°59' E 025°58'0 0.0
2017-Jun-16 14:59N 70°59' E 025°58'0 0.0
2017-Jun-16 13:58N 70°59' E 025°58'0 0.0
2017-Jun-16 13:28N 70°59' E 025°58'0 0.0
2017-Jun-16 12:58N 70°59' E 025°58'0 0.0
2017-Jun-16 12:28N 70°59' E 025°58'0 0.0
2017-Jun-16 12:00N 70°59' E 025°58'0 0.0
2017-Jun-16 11:30N 70°59' E 025°58'0 0.0
2017-Jun-16 11:00N 70°59' E 025°58'0 0.0
2017-Jun-16 10:30N 70°59' E 025°58'0 0.0
2017-Jun-16 10:00N 70°59' E 025°58'0 0.0
2017-Jun-16 09:29N 70°59' E 025°58'0 0.0
2017-Jun-16 09:00N 70°59' E 025°58'1 3.0
2017-Jun-16 08:30N 70°58' E 025°59'510.4
2017-Jun-16 08:00N 70°59' E 026°14'612.2
2017-Jun-16 07:30N 71°05' E 026°19'714.1
2017-Jun-16 07:00N 71°11' E 026°06'714.3
2017-Jun-16 06:30N 71°14' E 025°46'917.6
2017-Jun-16 06:00N 71°14' E 025°19'1019.9
2017-Jun-16 05:30N 71°13' E 024°48'1019.7
2017-Jun-16 05:00N 71°12' E 024°18'1020.1
2017-Jun-16 04:30N 71°11' E 023°47'1020.3
2017-Jun-16 04:00N 71°08' E 023°17'1020.1
2017-Jun-16 03:30N 71°05' E 022°47'1020.3
2017-Jun-16 03:00N 71°01' E 022°18'1020.0
2017-Jun-16 02:29N 70°57' E 021°50'3719.3
2017-Jun-16 00:34N 70°41' E 020°07'119.0
2017-Jun-16 00:30N 70°41' E 020°03'918.7
2017-Jun-16 00:00N 70°36' E 019°39'918.9
2017-Jun-15 23:30N 70°30' E 019°16'919.1
2017-Jun-15 23:00N 70°24' E 018°54'  

Dump ship's entire track history